sensor_id;sensor_type;location;lat;lon;timestamp;P1;durP1;ratioP1;P2;durP2;ratioP2
58643;SDS011;44411;49.994;8.660;2022-12-10T00:01:31;36.17;;;21.77;;
58643;SDS011;44411;49.994;8.660;2022-12-10T00:03:59;37.17;;;20.90;;
58643;SDS011;44411;49.994;8.660;2022-12-10T00:06:26;35.70;;;22.10;;
58643;SDS011;44411;49.994;8.660;2022-12-10T00:08:53;38.88;;;22.30;;
58643;SDS011;44411;49.994;8.660;2022-12-10T00:11:20;33.80;;;20.77;;
58643;SDS011;44411;49.994;8.660;2022-12-10T00:13:49;40.97;;;22.58;;
58643;SDS011;44411;49.994;8.660;2022-12-10T00:16:16;35.15;;;19.88;;
58643;SDS011;44411;49.994;8.660;2022-12-10T00:18:43;36.33;;;20.83;;
58643;SDS011;44411;49.994;8.660;2022-12-10T00:21:10;34.55;;;20.42;;
58643;SDS011;44411;49.994;8.660;2022-12-10T00:23:37;35.67;;;19.52;;
58643;SDS011;44411;49.994;8.660;2022-12-10T00:26:03;33.53;;;20.35;;
58643;SDS011;44411;49.994;8.660;2022-12-10T00:28:29;37.40;;;20.42;;
58643;SDS011;44411;49.994;8.660;2022-12-10T00:30:54;35.80;;;19.95;;
58643;SDS011;44411;49.994;8.660;2022-12-10T00:33:20;35.40;;;20.00;;
58643;SDS011;44411;49.994;8.660;2022-12-10T00:35:45;32.17;;;19.25;;
58643;SDS011;44411;49.994;8.660;2022-12-10T00:38:10;37.08;;;20.48;;
58643;SDS011;44411;49.994;8.660;2022-12-10T00:40:36;33.22;;;18.58;;
58643;SDS011;44411;49.994;8.660;2022-12-10T00:43:01;34.10;;;19.48;;
58643;SDS011;44411;49.994;8.660;2022-12-10T00:45:26;32.63;;;20.13;;
58643;SDS011;44411;49.994;8.660;2022-12-10T00:47:52;35.47;;;19.92;;
58643;SDS011;44411;49.994;8.660;2022-12-10T00:50:17;30.67;;;17.40;;
58643;SDS011;44411;49.994;8.660;2022-12-10T00:52:42;34.97;;;18.27;;
58643;SDS011;44411;49.994;8.660;2022-12-10T00:55:07;29.80;;;18.05;;
58643;SDS011;44411;49.994;8.660;2022-12-10T00:57:33;35.58;;;18.83;;
58643;SDS011;44411;49.994;8.660;2022-12-10T00:59:58;34.28;;;19.52;;
58643;SDS011;44411;49.994;8.660;2022-12-10T01:12:44;28.75;;;16.65;;
58643;SDS011;44411;49.994;8.660;2022-12-10T01:15:10;30.08;;;18.45;;
58643;SDS011;44411;49.994;8.660;2022-12-10T01:17:36;27.58;;;18.02;;
58643;SDS011;44411;49.994;8.660;2022-12-10T01:20:01;31.23;;;18.52;;
58643;SDS011;44411;49.994;8.660;2022-12-10T01:22:27;26.80;;;15.77;;
58643;SDS011;44411;49.994;8.660;2022-12-10T01:24:52;26.42;;;16.58;;
58643;SDS011;44411;49.994;8.660;2022-12-10T01:27:17;31.63;;;17.92;;
58643;SDS011;44411;49.994;8.660;2022-12-10T01:29:43;29.98;;;18.17;;
58643;SDS011;44411;49.994;8.660;2022-12-10T01:32:08;28.52;;;16.63;;
58643;SDS011;44411;49.994;8.660;2022-12-10T01:34:33;27.60;;;17.70;;
58643;SDS011;44411;49.994;8.660;2022-12-10T01:36:59;26.65;;;16.88;;
58643;SDS011;44411;49.994;8.660;2022-12-10T01:39:24;31.02;;;17.33;;
58643;SDS011;44411;49.994;8.660;2022-12-10T01:41:59;29.13;;;17.15;;
58643;SDS011;44411;49.994;8.660;2022-12-10T01:46:51;31.40;;;18.17;;
58643;SDS011;44411;49.994;8.660;2022-12-10T01:49:20;25.88;;;15.75;;
58643;SDS011;44411;49.994;8.660;2022-12-10T01:59:32;25.85;;;15.77;;
58643;SDS011;44411;49.994;8.660;2022-12-10T02:02:01;29.55;;;16.67;;
58643;SDS011;44411;49.994;8.660;2022-12-10T06:02:33;32.50;;;16.75;;
58643;SDS011;44411;49.994;8.660;2022-12-10T06:05:01;28.63;;;16.42;;
58643;SDS011;44411;49.994;8.660;2022-12-10T06:07:36;30.67;;;17.35;;
58643;SDS011;44411;49.994;8.660;2022-12-10T06:10:01;28.65;;;17.70;;
58643;SDS011;44411;49.994;8.660;2022-12-10T06:12:27;27.92;;;17.60;;
58643;SDS011;44411;49.994;8.660;2022-12-10T06:14:53;30.17;;;17.85;;
58643;SDS011;44411;49.994;8.660;2022-12-10T06:17:18;30.70;;;18.08;;
58643;SDS011;44411;49.994;8.660;2022-12-10T06:19:43;32.38;;;17.58;;
58643;SDS011;44411;49.994;8.660;2022-12-10T06:22:09;32.85;;;17.80;;
58643;SDS011;44411;49.994;8.660;2022-12-10T06:24:35;28.25;;;17.55;;
58643;SDS011;44411;49.994;8.660;2022-12-10T06:27:06;30.17;;;17.80;;
58643;SDS011;44411;49.994;8.660;2022-12-10T06:29:33;28.80;;;17.88;;
58643;SDS011;44411;49.994;8.660;2022-12-10T06:32:01;29.00;;;16.67;;
58643;SDS011;44411;49.994;8.660;2022-12-10T06:34:27;30.88;;;17.40;;
58643;SDS011;44411;49.994;8.660;2022-12-10T06:36:53;35.45;;;19.10;;
58643;SDS011;44411;49.994;8.660;2022-12-10T06:39:18;30.70;;;18.58;;
58643;SDS011;44411;49.994;8.660;2022-12-10T06:41:43;34.13;;;19.15;;
58643;SDS011;44411;49.994;8.660;2022-12-10T06:44:11;33.60;;;18.60;;
58643;SDS011;44411;49.994;8.660;2022-12-10T06:46:37;36.75;;;19.67;;
58643;SDS011;44411;49.994;8.660;2022-12-10T06:49:07;29.70;;;16.43;;
58643;SDS011;44411;49.994;8.660;2022-12-10T06:51:33;32.47;;;18.75;;
58643;SDS011;44411;49.994;8.660;2022-12-10T06:53:58;30.85;;;17.70;;
58643;SDS011;44411;49.994;8.660;2022-12-10T06:56:24;31.15;;;18.08;;
58643;SDS011;44411;49.994;8.660;2022-12-10T06:58:49;30.15;;;17.17;;
58643;SDS011;44411;49.994;8.660;2022-12-10T07:01:16;32.70;;;18.20;;
58643;SDS011;44411;49.994;8.660;2022-12-10T07:03:42;33.55;;;18.35;;
58643;SDS011;44411;49.994;8.660;2022-12-10T07:06:08;31.17;;;18.63;;
58643;SDS011;44411;49.994;8.660;2022-12-10T07:08:35;34.03;;;18.52;;
58643;SDS011;44411;49.994;8.660;2022-12-10T07:11:08;28.40;;;17.42;;
58643;SDS011;44411;49.994;8.660;2022-12-10T07:13:35;27.63;;;16.45;;
58643;SDS011;44411;49.994;8.660;2022-12-10T07:16:01;38.00;;;27.05;;
58643;SDS011;44411;49.994;8.660;2022-12-10T07:18:27;37.72;;;24.17;;
58643;SDS011;44411;49.994;8.660;2022-12-10T07:20:53;34.22;;;22.75;;
58643;SDS011;44411;49.994;8.660;2022-12-10T07:23:18;28.98;;;16.20;;
58643;SDS011;44411;49.994;8.660;2022-12-10T07:25:44;28.60;;;17.73;;
58643;SDS011;44411;49.994;8.660;2022-12-10T07:28:09;27.50;;;16.77;;
58643;SDS011;44411;49.994;8.660;2022-12-10T07:30:35;30.45;;;17.00;;
58643;SDS011;44411;49.994;8.660;2022-12-10T07:33:00;26.63;;;15.98;;
58643;SDS011;44411;49.994;8.660;2022-12-10T07:35:25;28.45;;;17.35;;
58643;SDS011;44411;49.994;8.660;2022-12-10T07:37:51;32.20;;;17.55;;
58643;SDS011;44411;49.994;8.660;2022-12-10T07:40:16;31.55;;;18.52;;
58643;SDS011;44411;49.994;8.660;2022-12-10T07:42:42;28.60;;;17.48;;
58643;SDS011;44411;49.994;8.660;2022-12-10T07:45:07;26.40;;;17.13;;
58643;SDS011;44411;49.994;8.660;2022-12-10T07:47:37;28.27;;;17.30;;
58643;SDS011;44411;49.994;8.660;2022-12-10T07:50:04;28.95;;;16.48;;
58643;SDS011;44411;49.994;8.660;2022-12-10T07:52:29;28.52;;;17.15;;
58643;SDS011;44411;49.994;8.660;2022-12-10T07:54:55;28.20;;;17.20;;
58643;SDS011;44411;49.994;8.660;2022-12-10T07:57:20;27.77;;;15.88;;
58643;SDS011;44411;49.994;8.660;2022-12-10T07:59:46;29.25;;;17.35;;
58643;SDS011;44411;49.994;8.660;2022-12-10T08:02:12;27.33;;;16.95;;
58643;SDS011;44411;49.994;8.660;2022-12-10T08:04:37;29.48;;;17.55;;
58643;SDS011;44411;49.994;8.660;2022-12-10T08:07:02;30.20;;;17.33;;
58643;SDS011;44411;49.994;8.660;2022-12-10T08:09:28;29.30;;;17.40;;
58643;SDS011;44411;49.994;8.660;2022-12-10T08:11:53;24.13;;;16.38;;
58643;SDS011;44411;49.994;8.660;2022-12-10T08:14:19;26.73;;;16.13;;
58643;SDS011;44411;49.994;8.660;2022-12-10T08:16:44;28.27;;;18.60;;
58643;SDS011;44411;49.994;8.660;2022-12-10T08:19:09;27.08;;;16.15;;
58643;SDS011;44411;49.994;8.660;2022-12-10T08:21:35;25.67;;;16.23;;
58643;SDS011;44411;49.994;8.660;2022-12-10T08:24:00;25.45;;;16.15;;
58643;SDS011;44411;49.994;8.660;2022-12-10T08:26:27;27.10;;;16.08;;
58643;SDS011;44411;49.994;8.660;2022-12-10T08:28:54;27.80;;;16.20;;
58643;SDS011;44411;49.994;8.660;2022-12-10T08:31:20;24.10;;;15.00;;
58643;SDS011;44411;49.994;8.660;2022-12-10T08:33:47;27.13;;;15.98;;
58643;SDS011;44411;49.994;8.660;2022-12-10T08:36:13;28.77;;;16.58;;
58643;SDS011;44411;49.994;8.660;2022-12-10T08:38:40;23.08;;;14.20;;
58643;SDS011;44411;49.994;8.660;2022-12-10T08:41:09;26.90;;;15.48;;
58643;SDS011;44411;49.994;8.660;2022-12-10T08:43:39;27.70;;;15.30;;
58643;SDS011;44411;49.994;8.660;2022-12-10T08:46:04;28.42;;;15.00;;
58643;SDS011;44411;49.994;8.660;2022-12-10T08:48:30;23.50;;;13.82;;
58643;SDS011;44411;49.994;8.660;2022-12-10T08:50:57;26.45;;;15.45;;
58643;SDS011;44411;49.994;8.660;2022-12-10T08:53:22;25.30;;;15.88;;
58643;SDS011;44411;49.994;8.660;2022-12-10T08:55:52;23.00;;;15.25;;
58643;SDS011;44411;49.994;8.660;2022-12-10T08:58:18;25.45;;;15.13;;
58643;SDS011;44411;49.994;8.660;2022-12-10T09:00:44;25.60;;;15.35;;
58643;SDS011;44411;49.994;8.660;2022-12-10T09:03:11;26.30;;;14.10;;
58643;SDS011;44411;49.994;8.660;2022-12-10T09:05:36;25.02;;;14.88;;
58643;SDS011;44411;49.994;8.660;2022-12-10T09:08:02;23.60;;;14.32;;
58643;SDS011;44411;49.994;8.660;2022-12-10T09:10:27;27.88;;;14.82;;
58643;SDS011;44411;49.994;8.660;2022-12-10T09:12:53;22.98;;;14.15;;
58643;SDS011;44411;49.994;8.660;2022-12-10T09:15:18;23.65;;;14.02;;
58643;SDS011;44411;49.994;8.660;2022-12-10T09:17:44;25.65;;;15.20;;
58643;SDS011;44411;49.994;8.660;2022-12-10T09:20:09;23.83;;;15.25;;
58643;SDS011;44411;49.994;8.660;2022-12-10T09:22:35;23.73;;;14.40;;
58643;SDS011;44411;49.994;8.660;2022-12-10T09:25:02;24.83;;;14.65;;
58643;SDS011;44411;49.994;8.660;2022-12-10T09:27:29;25.67;;;15.80;;
58643;SDS011;44411;49.994;8.660;2022-12-10T09:29:55;23.35;;;15.68;;
58643;SDS011;44411;49.994;8.660;2022-12-10T09:32:20;24.63;;;15.32;;
58643;SDS011;44411;49.994;8.660;2022-12-10T09:34:46;26.88;;;14.32;;
58643;SDS011;44411;49.994;8.660;2022-12-10T09:37:11;25.15;;;15.70;;
58643;SDS011;44411;49.994;8.660;2022-12-10T09:39:36;22.63;;;15.80;;
58643;SDS011;44411;49.994;8.660;2022-12-10T09:50:23;25.33;;;15.52;;
58643;SDS011;44411;49.994;8.660;2022-12-10T09:52:56;25.55;;;16.77;;
58643;SDS011;44411;49.994;8.660;2022-12-10T09:55:32;23.35;;;15.55;;
58643;SDS011;44411;49.994;8.660;2022-12-10T09:58:01;24.38;;;16.17;;
58643;SDS011;44411;49.994;8.660;2022-12-10T10:00:33;30.55;;;14.52;;
58643;SDS011;44411;49.994;8.660;2022-12-10T10:03:02;24.13;;;15.65;;
58643;SDS011;44411;49.994;8.660;2022-12-10T10:05:32;23.73;;;14.70;;
58643;SDS011;44411;49.994;8.660;2022-12-10T10:08:05;22.17;;;14.35;;
58643;SDS011;44411;49.994;8.660;2022-12-10T10:10:38;23.80;;;14.88;;
58643;SDS011;44411;49.994;8.660;2022-12-10T10:15:35;21.65;;;14.20;;
58643;SDS011;44411;49.994;8.660;2022-12-10T10:20:47;22.00;;;14.63;;
58643;SDS011;44411;49.994;8.660;2022-12-10T10:23:14;22.02;;;14.30;;
58643;SDS011;44411;49.994;8.660;2022-12-10T10:25:40;20.33;;;15.32;;
58643;SDS011;44411;49.994;8.660;2022-12-10T10:28:09;24.98;;;15.20;;
58643;SDS011;44411;49.994;8.660;2022-12-10T10:30:37;24.00;;;14.75;;
58643;SDS011;44411;49.994;8.660;2022-12-10T10:33:08;23.77;;;15.63;;
58643;SDS011;44411;49.994;8.660;2022-12-10T10:35:41;24.48;;;15.68;;
58643;SDS011;44411;49.994;8.660;2022-12-10T10:38:25;23.60;;;15.48;;
58643;SDS011;44411;49.994;8.660;2022-12-10T10:40:59;22.00;;;14.65;;
58643;SDS011;44411;49.994;8.660;2022-12-10T10:43:32;22.58;;;14.73;;
58643;SDS011;44411;49.994;8.660;2022-12-10T10:46:13;21.58;;;14.43;;
58643;SDS011;44411;49.994;8.660;2022-12-10T10:48:41;22.40;;;15.02;;
58643;SDS011;44411;49.994;8.660;2022-12-10T10:53:41;21.70;;;12.50;;
58643;SDS011;44411;49.994;8.660;2022-12-10T10:56:14;22.08;;;13.07;;
58643;SDS011;44411;49.994;8.660;2022-12-10T11:01:24;22.02;;;14.68;;
58643;SDS011;44411;49.994;8.660;2022-12-10T11:03:56;23.13;;;15.27;;
58643;SDS011;44411;49.994;8.660;2022-12-10T11:06:23;24.63;;;14.27;;
58643;SDS011;44411;49.994;8.660;2022-12-10T11:08:56;24.50;;;13.98;;
58643;SDS011;44411;49.994;8.660;2022-12-10T11:11:29;24.58;;;14.85;;
58643;SDS011;44411;49.994;8.660;2022-12-10T11:16:59;20.33;;;13.88;;
58643;SDS011;44411;49.994;8.660;2022-12-10T11:19:26;19.45;;;12.05;;
58643;SDS011;44411;49.994;8.660;2022-12-10T11:21:52;18.55;;;12.45;;
58643;SDS011;44411;49.994;8.660;2022-12-10T11:24:18;22.42;;;14.20;;
58643;SDS011;44411;49.994;8.660;2022-12-10T11:26:53;21.92;;;14.15;;
58643;SDS011;44411;49.994;8.660;2022-12-10T11:35:17;22.75;;;13.82;;
58643;SDS011;44411;49.994;8.660;2022-12-10T11:38:50;21.20;;;13.80;;
58643;SDS011;44411;49.994;8.660;2022-12-10T11:46:16;22.77;;;14.23;;
58643;SDS011;44411;49.994;8.660;2022-12-10T11:51:50;18.65;;;12.57;;
58643;SDS011;44411;49.994;8.660;2022-12-10T12:00:23;22.35;;;13.85;;
58643;SDS011;44411;49.994;8.660;2022-12-10T12:03:03;20.90;;;13.88;;
58643;SDS011;44411;49.994;8.660;2022-12-10T12:08:42;22.42;;;14.35;;
58643;SDS011;44411;49.994;8.660;2022-12-10T12:19:39;22.63;;;13.85;;
58643;SDS011;44411;49.994;8.660;2022-12-10T12:22:13;21.55;;;14.23;;
58643;SDS011;44411;49.994;8.660;2022-12-10T12:24:41;23.80;;;15.98;;
58643;SDS011;44411;49.994;8.660;2022-12-10T12:30:19;21.30;;;13.02;;
58643;SDS011;44411;49.994;8.660;2022-12-10T12:35:40;19.83;;;12.75;;
58643;SDS011;44411;49.994;8.660;2022-12-10T12:41:05;23.23;;;14.88;;
58643;SDS011;44411;49.994;8.660;2022-12-10T12:44:00;21.55;;;14.25;;
58643;SDS011;44411;49.994;8.660;2022-12-10T12:46:39;22.88;;;15.18;;
58643;SDS011;44411;49.994;8.660;2022-12-10T12:49:27;22.45;;;13.88;;
58643;SDS011;44411;49.994;8.660;2022-12-10T13:24:17;21.63;;;13.68;;
58643;SDS011;44411;49.994;8.660;2022-12-10T13:27:31;23.05;;;14.55;;
58643;SDS011;44411;49.994;8.660;2022-12-10T13:29:39;22.23;;;14.68;;
58643;SDS011;44411;49.994;8.660;2022-12-10T13:32:24;20.27;;;14.30;;
58643;SDS011;44411;49.994;8.660;2022-12-10T13:42:39;16.23;;;11.43;;
58643;SDS011;44411;49.994;8.660;2022-12-10T13:45:28;16.92;;;11.10;;
58643;SDS011;44411;49.994;8.660;2022-12-10T13:50:45;18.58;;;12.57;;
58643;SDS011;44411;49.994;8.660;2022-12-10T13:53:36;19.73;;;12.57;;
58643;SDS011;44411;49.994;8.660;2022-12-10T14:04:15;21.02;;;13.20;;
58643;SDS011;44411;49.994;8.660;2022-12-10T14:06:44;19.38;;;12.23;;
58643;SDS011;44411;49.994;8.660;2022-12-10T14:09:17;17.38;;;11.77;;
58643;SDS011;44411;49.994;8.660;2022-12-10T14:11:49;17.65;;;12.15;;
58643;SDS011;44411;49.994;8.660;2022-12-10T14:14:25;20.73;;;13.30;;
58643;SDS011;44411;49.994;8.660;2022-12-10T14:16:58;18.55;;;12.35;;
58643;SDS011;44411;49.994;8.660;2022-12-10T14:19:26;19.38;;;12.27;;
58643;SDS011;44411;49.994;8.660;2022-12-10T14:21:53;17.40;;;12.05;;
58643;SDS011;44411;49.994;8.660;2022-12-10T14:24:35;18.45;;;13.02;;
58643;SDS011;44411;49.994;8.660;2022-12-10T14:27:13;17.88;;;12.07;;
58643;SDS011;44411;49.994;8.660;2022-12-10T14:29:50;19.15;;;12.60;;
58643;SDS011;44411;49.994;8.660;2022-12-10T14:32:23;21.00;;;13.98;;
58643;SDS011;44411;49.994;8.660;2022-12-10T14:34:55;19.33;;;13.10;;
58643;SDS011;44411;49.994;8.660;2022-12-10T14:37:23;19.85;;;13.50;;
58643;SDS011;44411;49.994;8.660;2022-12-10T14:39:51;17.53;;;12.30;;
58643;SDS011;44411;49.994;8.660;2022-12-10T14:42:17;21.10;;;13.77;;
58643;SDS011;44411;49.994;8.660;2022-12-10T14:44:42;19.52;;;13.02;;
58643;SDS011;44411;49.994;8.660;2022-12-10T14:47:15;19.88;;;12.27;;
58643;SDS011;44411;49.994;8.660;2022-12-10T14:49:44;18.05;;;12.23;;
58643;SDS011;44411;49.994;8.660;2022-12-10T14:52:11;18.80;;;13.82;;
58643;SDS011;44411;49.994;8.660;2022-12-10T14:54:39;21.67;;;12.32;;
58643;SDS011;44411;49.994;8.660;2022-12-10T14:57:06;20.98;;;13.00;;
58643;SDS011;44411;49.994;8.660;2022-12-10T14:59:42;19.40;;;11.82;;
58643;SDS011;44411;49.994;8.660;2022-12-10T15:02:24;20.30;;;12.80;;
58643;SDS011;44411;49.994;8.660;2022-12-10T15:04:54;17.77;;;12.20;;
58643;SDS011;44411;49.994;8.660;2022-12-10T15:07:21;18.35;;;11.95;;
58643;SDS011;44411;49.994;8.660;2022-12-10T15:09:49;20.60;;;13.43;;
58643;SDS011;44411;49.994;8.660;2022-12-10T15:12:24;16.00;;;11.82;;
58643;SDS011;44411;49.994;8.660;2022-12-10T15:14:53;18.52;;;11.80;;
58643;SDS011;44411;49.994;8.660;2022-12-10T15:20:36;18.20;;;12.65;;
58643;SDS011;44411;49.994;8.660;2022-12-10T15:28:26;17.83;;;12.40;;
58643;SDS011;44411;49.994;8.660;2022-12-10T15:30:57;17.20;;;10.60;;
58643;SDS011;44411;49.994;8.660;2022-12-10T15:33:36;18.75;;;12.63;;
58643;SDS011;44411;49.994;8.660;2022-12-10T15:36:04;17.02;;;11.52;;
58643;SDS011;44411;49.994;8.660;2022-12-10T15:38:30;18.17;;;11.55;;
58643;SDS011;44411;49.994;8.660;2022-12-10T15:40:57;19.35;;;12.80;;
58643;SDS011;44411;49.994;8.660;2022-12-10T15:45:49;19.25;;;12.45;;
58643;SDS011;44411;49.994;8.660;2022-12-10T15:48:19;18.67;;;12.43;;
58643;SDS011;44411;49.994;8.660;2022-12-10T15:50:45;20.17;;;12.90;;
58643;SDS011;44411;49.994;8.660;2022-12-10T15:53:11;19.95;;;12.57;;
58643;SDS011;44411;49.994;8.660;2022-12-10T15:55:39;19.30;;;12.82;;
58643;SDS011;44411;49.994;8.660;2022-12-10T15:58:09;17.85;;;12.45;;
58643;SDS011;44411;49.994;8.660;2022-12-10T16:00:36;20.52;;;13.95;;
58643;SDS011;44411;49.994;8.660;2022-12-10T16:03:03;20.88;;;13.75;;
58643;SDS011;44411;49.994;8.660;2022-12-10T16:05:36;20.27;;;13.52;;
58643;SDS011;44411;49.994;8.660;2022-12-10T16:10:44;18.85;;;13.55;;
58643;SDS011;44411;49.994;8.660;2022-12-10T16:13:13;18.90;;;12.25;;
58643;SDS011;44411;49.994;8.660;2022-12-10T16:18:15;21.38;;;13.40;;
58643;SDS011;44411;49.994;8.660;2022-12-10T16:20:41;20.00;;;12.10;;
58643;SDS011;44411;49.994;8.660;2022-12-10T16:23:07;22.48;;;13.07;;
58643;SDS011;44411;49.994;8.660;2022-12-10T16:25:33;19.65;;;13.32;;
58643;SDS011;44411;49.994;8.660;2022-12-10T16:28:00;20.33;;;13.07;;
58643;SDS011;44411;49.994;8.660;2022-12-10T16:30:37;20.65;;;12.77;;
58643;SDS011;44411;49.994;8.660;2022-12-10T16:33:06;19.48;;;13.05;;
58643;SDS011;44411;49.994;8.660;2022-12-10T16:35:31;18.55;;;12.40;;
58643;SDS011;44411;49.994;8.660;2022-12-10T16:37:57;18.30;;;12.40;;
58643;SDS011;44411;49.994;8.660;2022-12-10T16:40:24;20.63;;;13.10;;
58643;SDS011;44411;49.994;8.660;2022-12-10T16:42:50;19.70;;;13.18;;
58643;SDS011;44411;49.994;8.660;2022-12-10T16:45:38;20.05;;;14.00;;
58643;SDS011;44411;49.994;8.660;2022-12-10T16:48:04;19.33;;;13.88;;
58643;SDS011;44411;49.994;8.660;2022-12-10T16:50:29;19.45;;;12.00;;
58643;SDS011;44411;49.994;8.660;2022-12-10T16:52:56;20.48;;;13.52;;
58643;SDS011;44411;49.994;8.660;2022-12-10T16:55:27;17.98;;;12.38;;
58643;SDS011;44411;49.994;8.660;2022-12-10T16:57:52;22.23;;;14.55;;
58643;SDS011;44411;49.994;8.660;2022-12-10T17:00:22;23.38;;;13.63;;
58643;SDS011;44411;49.994;8.660;2022-12-10T17:02:49;20.70;;;13.30;;
58643;SDS011;44411;49.994;8.660;2022-12-10T17:05:16;18.05;;;13.02;;
58643;SDS011;44411;49.994;8.660;2022-12-10T17:07:49;20.95;;;13.25;;
58643;SDS011;44411;49.994;8.660;2022-12-10T17:10:14;21.83;;;13.73;;
58643;SDS011;44411;49.994;8.660;2022-12-10T17:12:40;20.30;;;14.20;;
58643;SDS011;44411;49.994;8.660;2022-12-10T17:15:10;20.85;;;14.70;;
58643;SDS011;44411;49.994;8.660;2022-12-10T17:17:37;20.95;;;13.55;;
58643;SDS011;44411;49.994;8.660;2022-12-10T17:20:06;19.65;;;13.48;;
58643;SDS011;44411;49.994;8.660;2022-12-10T17:22:40;22.10;;;13.38;;
58643;SDS011;44411;49.994;8.660;2022-12-10T17:25:05;21.35;;;13.20;;
58643;SDS011;44411;49.994;8.660;2022-12-10T17:27:31;19.58;;;13.65;;
58643;SDS011;44411;49.994;8.660;2022-12-10T17:29:56;23.30;;;14.35;;
58643;SDS011;44411;49.994;8.660;2022-12-10T17:32:21;23.02;;;15.73;;
58643;SDS011;44411;49.994;8.660;2022-12-10T17:34:47;26.23;;;16.67;;
58643;SDS011;44411;49.994;8.660;2022-12-10T17:37:14;25.02;;;17.55;;
58643;SDS011;44411;49.994;8.660;2022-12-10T17:39:42;26.63;;;17.73;;
58643;SDS011;44411;49.994;8.660;2022-12-10T17:42:07;25.10;;;17.10;;
58643;SDS011;44411;49.994;8.660;2022-12-10T17:44:36;30.42;;;19.33;;
58643;SDS011;44411;49.994;8.660;2022-12-10T17:47:13;28.25;;;17.55;;
58643;SDS011;44411;49.994;8.660;2022-12-10T17:49:41;28.58;;;19.75;;
58643;SDS011;44411;49.994;8.660;2022-12-10T17:52:07;30.08;;;19.50;;
58643;SDS011;44411;49.994;8.660;2022-12-10T17:54:33;28.35;;;20.00;;
58643;SDS011;44411;49.994;8.660;2022-12-10T17:56:58;31.65;;;19.75;;
58643;SDS011;44411;49.994;8.660;2022-12-10T17:59:25;37.03;;;22.80;;
58643;SDS011;44411;49.994;8.660;2022-12-10T18:01:51;28.23;;;19.60;;
58643;SDS011;44411;49.994;8.660;2022-12-10T18:04:17;32.38;;;20.48;;
58643;SDS011;44411;49.994;8.660;2022-12-10T18:06:42;29.25;;;19.30;;
58643;SDS011;44411;49.994;8.660;2022-12-10T18:09:08;27.75;;;18.27;;
58643;SDS011;44411;49.994;8.660;2022-12-10T18:11:35;30.20;;;19.63;;
58643;SDS011;44411;49.994;8.660;2022-12-10T18:14:00;26.70;;;18.17;;
58643;SDS011;44411;49.994;8.660;2022-12-10T18:16:30;27.42;;;18.83;;
58643;SDS011;44411;49.994;8.660;2022-12-10T18:18:59;29.25;;;18.30;;
58643;SDS011;44411;49.994;8.660;2022-12-10T18:21:25;24.25;;;16.40;;
58643;SDS011;44411;49.994;8.660;2022-12-10T18:23:51;30.63;;;19.75;;
58643;SDS011;44411;49.994;8.660;2022-12-10T18:26:18;33.65;;;20.42;;
58643;SDS011;44411;49.994;8.660;2022-12-10T18:28:50;28.90;;;19.70;;
58643;SDS011;44411;49.994;8.660;2022-12-10T18:31:20;27.35;;;17.75;;
58643;SDS011;44411;49.994;8.660;2022-12-10T18:33:49;30.77;;;20.38;;
58643;SDS011;44411;49.994;8.660;2022-12-10T18:36:22;31.55;;;20.33;;
58643;SDS011;44411;49.994;8.660;2022-12-10T18:38:50;31.13;;;19.25;;
58643;SDS011;44411;49.994;8.660;2022-12-10T18:41:17;31.63;;;21.67;;
58643;SDS011;44411;49.994;8.660;2022-12-10T18:43:43;29.20;;;19.70;;
58643;SDS011;44411;49.994;8.660;2022-12-10T18:46:17;33.33;;;21.13;;
58643;SDS011;44411;49.994;8.660;2022-12-10T18:48:44;31.50;;;20.48;;
58643;SDS011;44411;49.994;8.660;2022-12-10T18:51:11;34.42;;;21.20;;
58643;SDS011;44411;49.994;8.660;2022-12-10T18:53:39;33.97;;;21.10;;
58643;SDS011;44411;49.994;8.660;2022-12-10T18:56:09;29.35;;;20.77;;
58643;SDS011;44411;49.994;8.660;2022-12-10T18:58:37;33.00;;;21.00;;
58643;SDS011;44411;49.994;8.660;2022-12-10T19:01:03;35.75;;;20.98;;
58643;SDS011;44411;49.994;8.660;2022-12-10T19:03:29;33.83;;;21.02;;
58643;SDS011;44411;49.994;8.660;2022-12-10T19:05:54;33.22;;;21.73;;
58643;SDS011;44411;49.994;8.660;2022-12-10T19:08:19;34.72;;;21.85;;
58643;SDS011;44411;49.994;8.660;2022-12-10T19:10:44;34.45;;;21.77;;
58643;SDS011;44411;49.994;8.660;2022-12-10T19:13:10;31.30;;;20.40;;
58643;SDS011;44411;49.994;8.660;2022-12-10T19:15:36;36.63;;;21.85;;
58643;SDS011;44411;49.994;8.660;2022-12-10T19:18:01;33.58;;;22.35;;
58643;SDS011;44411;49.994;8.660;2022-12-10T19:20:28;33.55;;;22.17;;
58643;SDS011;44411;49.994;8.660;2022-12-10T19:22:54;32.72;;;21.27;;
58643;SDS011;44411;49.994;8.660;2022-12-10T19:25:20;34.53;;;21.67;;
58643;SDS011;44411;49.994;8.660;2022-12-10T19:27:46;40.13;;;24.95;;
58643;SDS011;44411;49.994;8.660;2022-12-10T19:30:13;39.03;;;25.77;;
58643;SDS011;44411;49.994;8.660;2022-12-10T19:32:40;45.30;;;27.25;;
58643;SDS011;44411;49.994;8.660;2022-12-10T19:35:05;38.15;;;25.88;;
58643;SDS011;44411;49.994;8.660;2022-12-10T19:37:31;39.50;;;25.13;;
58643;SDS011;44411;49.994;8.660;2022-12-10T19:39:56;36.22;;;23.63;;
58643;SDS011;44411;49.994;8.660;2022-12-10T19:42:22;35.10;;;23.48;;
58643;SDS011;44411;49.994;8.660;2022-12-10T19:44:47;38.60;;;24.58;;
58643;SDS011;44411;49.994;8.660;2022-12-10T19:47:16;38.28;;;25.27;;
58643;SDS011;44411;49.994;8.660;2022-12-10T19:49:42;41.20;;;25.40;;
58643;SDS011;44411;49.994;8.660;2022-12-10T19:52:07;45.55;;;29.63;;
58643;SDS011;44411;49.994;8.660;2022-12-10T19:54:32;42.70;;;25.98;;
58643;SDS011;44411;49.994;8.660;2022-12-10T19:56:58;38.60;;;25.52;;
58643;SDS011;44411;49.994;8.660;2022-12-10T19:59:24;36.72;;;24.27;;
58643;SDS011;44411;49.994;8.660;2022-12-10T20:01:50;37.85;;;24.75;;
58643;SDS011;44411;49.994;8.660;2022-12-10T20:04:15;39.95;;;25.65;;
58643;SDS011;44411;49.994;8.660;2022-12-10T20:06:42;42.72;;;27.92;;
58643;SDS011;44411;49.994;8.660;2022-12-10T20:11:43;38.08;;;24.33;;
58643;SDS011;44411;49.994;8.660;2022-12-10T20:14:08;37.85;;;24.88;;
58643;SDS011;44411;49.994;8.660;2022-12-10T20:16:33;40.47;;;25.48;;
58643;SDS011;44411;49.994;8.660;2022-12-10T20:18:59;42.47;;;26.85;;
58643;SDS011;44411;49.994;8.660;2022-12-10T20:21:24;46.28;;;27.25;;
58643;SDS011;44411;49.994;8.660;2022-12-10T20:23:51;42.25;;;26.48;;
58643;SDS011;44411;49.994;8.660;2022-12-10T20:26:22;44.63;;;28.67;;
58643;SDS011;44411;49.994;8.660;2022-12-10T20:28:53;39.47;;;25.48;;
58643;SDS011;44411;49.994;8.660;2022-12-10T20:31:18;48.38;;;29.17;;
58643;SDS011;44411;49.994;8.660;2022-12-10T20:33:44;44.67;;;26.20;;
58643;SDS011;44411;49.994;8.660;2022-12-10T20:36:13;42.40;;;26.75;;
58643;SDS011;44411;49.994;8.660;2022-12-10T20:38:44;41.47;;;25.98;;
58643;SDS011;44411;49.994;8.660;2022-12-10T20:41:10;38.67;;;24.17;;
58643;SDS011;44411;49.994;8.660;2022-12-10T20:43:37;34.95;;;23.27;;
58643;SDS011;44411;49.994;8.660;2022-12-10T20:46:07;42.05;;;25.00;;
58643;SDS011;44411;49.994;8.660;2022-12-10T20:48:39;40.05;;;23.05;;
58643;SDS011;44411;49.994;8.660;2022-12-10T20:51:05;43.78;;;25.77;;
58643;SDS011;44411;49.994;8.660;2022-12-10T20:53:30;44.20;;;27.48;;
58643;SDS011;44411;49.994;8.660;2022-12-10T20:55:56;41.70;;;25.88;;
58643;SDS011;44411;49.994;8.660;2022-12-10T20:58:22;42.28;;;26.83;;